createdAt,value
2019-01-31T00:00:13.492Z,66.94
2019-01-31T00:03:04.002Z,66.74
2019-01-31T00:05:47.532Z,67.24
2019-01-31T00:08:46.428Z,67.24
2019-01-31T00:11:57.324Z,67.17
2019-01-31T00:14:47.915Z,66.91
2019-01-31T00:17:40.366Z,66.75
2019-01-31T00:20:44.612Z,67.02
2019-01-31T00:23:45.057Z,67.29
2019-01-31T00:26:25.111Z,67.06
2019-01-31T00:29:03.454Z,66.74
2019-01-31T00:31:51.095Z,66.19
2019-01-31T00:34:41.241Z,65.89
2019-01-31T00:37:25.305Z,65.81
2019-01-31T00:40:19.503Z,65.03
2019-01-31T00:43:17.071Z,65.05
2019-01-31T00:46:24.252Z,65.43
2019-01-31T00:49:28.108Z,65.39
2019-01-31T00:52:33.454Z,65.19
2019-01-31T00:55:19.095Z,64.46
2019-01-31T00:58:24.748Z,64.33
2019-01-31T01:01:42.204Z,63.91
2019-01-31T01:04:50.547Z,63.57
2019-01-31T01:08:00.417Z,63.30
2019-01-31T01:11:17.877Z,62.96
2019-01-31T01:14:16.134Z,62.95
2019-01-31T01:17:19.856Z,62.85
2019-01-31T01:20:15.344Z,62.75
2019-01-31T01:23:14.531Z,62.68
2019-01-31T01:26:17.306Z,62.24
2019-01-31T01:29:23.714Z,62.51
2019-01-31T01:32:18.002Z,62.27
2019-01-31T01:35:04.692Z,62.16
2019-01-31T01:38:17.128Z,62.26
2019-01-31T01:41:00.381Z,62.36
2019-01-31T01:44:05.598Z,62.04
2019-01-31T01:46:49.342Z,62.08
2019-01-31T01:49:31.011Z,62.31
2019-01-31T01:52:33.406Z,61.81
2019-01-31T01:55:45.346Z,62.71
2019-01-31T01:58:34.685Z,63.01
2019-01-31T02:01:40.737Z,63.25
2019-01-31T02:04:22.659Z,63.26
2019-01-31T02:07:24.567Z,63.36
2019-01-31T02:10:22.038Z,63.44
2019-01-31T02:13:28.980Z,63.56
2019-01-31T02:16:46.043Z,63.77
2019-01-31T02:19:54.566Z,63.45
2019-01-31T02:22:33.749Z,63.19
2019-01-31T02:25:15.308Z,62.95
2019-01-31T02:28:14.991Z,63.02
2019-01-31T02:31:14.987Z,63.20
2019-01-31T02:34:20.164Z,63.21
2019-01-31T02:37:14.359Z,62.94
2019-01-31T02:40:06.371Z,62.83
2019-01-31T02:42:47.400Z,62.83
2019-01-31T02:45:35.639Z,63.29
2019-01-31T02:48:24.959Z,63.62
2019-01-31T02:51:32.327Z,63.12
2019-01-31T02:54:16.813Z,63.41
2019-01-31T02:57:07.407Z,62.74
2019-01-31T03:00:19.203Z,62.76
2019-01-31T03:03:27.623Z,62.83
2019-01-31T03:06:17.333Z,62.83
2019-01-31T03:09:11.996Z,62.74
2019-01-31T03:12:16.005Z,62.88
2019-01-31T03:14:54.505Z,63.08
2019-01-31T03:17:50.041Z,63.19
2019-01-31T03:20:40.972Z,62.87
2019-01-31T03:23:58.688Z,63.01
2019-01-31T03:26:50.699Z,63.31
2019-01-31T03:29:59.468Z,63.69
2019-01-31T03:33:03.143Z,63.71
2019-01-31T03:36:11.645Z,64.18
2019-01-31T03:38:48.654Z,64.25
2019-01-31T03:41:44.966Z,64.09
2019-01-31T03:44:40.724Z,64.16
2019-01-31T03:47:21.089Z,63.88
2019-01-31T03:50:23.358Z,64.36
2019-01-31T03:53:27.100Z,64.44
2019-01-31T03:56:35.990Z,64.54
2019-01-31T03:59:21.954Z,64.36
2019-01-31T04:02:27.729Z,64.36
2019-01-31T04:05:59.976Z,64.14
2019-01-31T04:08:29.756Z,64.23
2019-01-31T04:11:01.466Z,63.73
2019-01-31T04:13:31.447Z,63.64
2019-01-31T04:16:01.435Z,63.62
2019-01-31T04:18:31.670Z,64.14
2019-01-31T04:21:03.212Z,64.37
2019-01-31T04:23:33.619Z,64.22
2019-01-31T04:26:07.620Z,64.27
2019-01-31T04:28:38.083Z,64.45
2019-01-31T04:31:07.875Z,64.02
2019-01-31T04:33:37.626Z,63.97
2019-01-31T04:36:07.976Z,64.02
2019-01-31T04:38:37.709Z,64.08
2019-01-31T04:41:07.484Z,63.87
2019-01-31T04:43:37.936Z,63.50
2019-01-31T04:46:07.721Z,63.53
2019-01-31T04:48:37.762Z,63.78
2019-01-31T04:51:08.225Z,63.39
2019-01-31T04:53:38.403Z,63.75
2019-01-31T04:56:08.800Z,63.66
2019-01-31T04:58:38.665Z,63.68
2019-01-31T05:01:08.598Z,63.72
2019-01-31T05:03:39.048Z,63.91
2019-01-31T05:06:09.191Z,64.11
2019-01-31T05:08:39.600Z,64.14
2019-01-31T05:11:10.296Z,64.14
2019-01-31T05:13:40.446Z,64.14
2019-01-31T05:16:10.784Z,63.94
2019-01-31T05:18:40.805Z,64.06
2019-01-31T05:21:11.415Z,63.96
2019-01-31T05:23:41.656Z,64.06
2019-01-31T05:26:11.790Z,64.17
2019-01-31T05:28:41.886Z,63.88
2019-01-31T05:31:12.917Z,64.06
2019-01-31T05:33:42.723Z,64.35
2019-01-31T05:36:12.804Z,64.65
2019-01-31T05:38:43.095Z,64.80
2019-01-31T05:41:13.531Z,64.70
2019-01-31T05:43:43.937Z,64.24
2019-01-31T05:46:14.049Z,64.18
2019-01-31T05:48:44.466Z,64.60
2019-01-31T05:51:14.892Z,64.64
2019-01-31T05:53:45.009Z,64.37
2019-01-31T05:56:14.522Z,64.46
2019-01-31T05:58:44.954Z,64.72
2019-01-31T06:01:15.780Z,64.79
2019-01-31T06:03:45.864Z,64.86
2019-01-31T06:06:16.473Z,65.09
2019-01-31T06:08:46.339Z,65.22
2019-01-31T06:11:16.767Z,64.81
2019-01-31T06:13:47.187Z,64.67
2019-01-31T06:16:17.002Z,65.55
2019-01-31T06:18:46.828Z,65.53
2019-01-31T06:21:16.650Z,65.33
2019-01-31T06:23:46.644Z,65.31
2019-01-31T06:26:17.370Z,65.77
2019-01-31T06:28:47.711Z,65.87
2019-01-31T06:31:17.952Z,65.52
2019-01-31T06:33:47.777Z,65.85
2019-01-31T06:36:18.381Z,66.18
2019-01-31T06:38:48.781Z,65.85
2019-01-31T06:41:19.037Z,66.12
2019-01-31T06:43:49.307Z,64.94
2019-01-31T06:46:19.265Z,64.94
2019-01-31T06:48:49.008Z,65.69
2019-01-31T06:51:19.787Z,65.69
2019-01-31T06:53:49.679Z,66.15
2019-01-31T06:56:19.409Z,66.46
2019-01-31T06:58:49.678Z,66.14
2019-01-31T07:01:20.161Z,65.86
2019-01-31T07:03:50.359Z,66.41
2019-01-31T07:06:20.355Z,66.12
2019-01-31T07:08:50.865Z,66.21
2019-01-31T07:11:29.655Z,65.14
2019-01-31T07:13:54.773Z,64.70
2019-01-31T07:16:25.432Z,64.99
2019-01-31T07:18:55.692Z,65.65
2019-01-31T07:21:25.962Z,65.33
2019-01-31T07:23:56.216Z,65.43
2019-01-31T07:26:26.709Z,65.32
2019-01-31T07:28:57.155Z,65.36
2019-01-31T07:31:28.677Z,64.99
2019-01-31T07:33:58.462Z,65.21
2019-01-31T07:36:28.501Z,65.14
2019-01-31T07:38:58.833Z,65.55
2019-01-31T07:41:29.062Z,65.43
2019-01-31T07:43:59.389Z,64.75
2019-01-31T07:46:29.393Z,64.36
2019-01-31T07:48:59.693Z,64.19
2019-01-31T07:51:30.349Z,63.54
2019-01-31T07:54:00.940Z,63.54
2019-01-31T07:56:31.998Z,62.94
2019-01-31T07:59:01.995Z,63.23
2019-01-31T08:01:32.591Z,63.14
2019-01-31T08:04:03.640Z,62.67
2019-01-31T08:06:33.926Z,62.46
2019-01-31T08:09:05.150Z,62.45
2019-01-31T08:11:36.832Z,61.89
2019-01-31T08:14:07.767Z,61.13
2019-01-31T08:16:38.287Z,60.74
2019-01-31T08:19:09.493Z,61.17
2019-01-31T08:21:41.116Z,60.73
2019-01-31T08:24:11.366Z,59.85
2019-01-31T08:26:41.674Z,59.79
2019-01-31T08:29:11.855Z,58.79
2019-01-31T08:31:42.471Z,58.80
2019-01-31T08:34:13.255Z,59.92
2019-01-31T08:36:43.264Z,60.05
2019-01-31T08:39:14.049Z,59.38
2019-01-31T08:41:45.026Z,58.74
2019-01-31T08:44:21.006Z,58.24
2019-01-31T08:46:51.420Z,58.55
2019-01-31T08:49:23.212Z,58.42
2019-01-31T08:51:55.621Z,58.21
2019-01-31T08:54:26.703Z,57.52
2019-01-31T08:56:56.871Z,57.12
2019-01-31T08:59:27.458Z,57.51
2019-01-31T09:01:59.021Z,58.14
2019-01-31T09:04:28.899Z,57.09
2019-01-31T09:06:59.399Z,56.82
2019-01-31T09:09:35.793Z,56.75
2019-01-31T09:12:14.961Z,56.75
2019-01-31T09:14:38.343Z,56.73
2019-01-31T09:17:09.190Z,56.45
2019-01-31T09:19:39.805Z,56.43
2019-01-31T09:22:35.080Z,56.82
2019-01-31T09:25:34.451Z,56.57
2019-01-31T09:28:24.019Z,55.17
2019-01-31T09:31:27.707Z,54.88
2019-01-31T09:34:26.989Z,54.45
2019-01-31T09:37:25.853Z,54.94
2019-01-31T09:40:17.191Z,53.46
2019-01-31T09:43:29.223Z,53.35
2019-01-31T09:46:27.878Z,54.01
2019-01-31T09:49:27.724Z,55.00
2019-01-31T09:52:35.549Z,53.85
2019-01-31T09:55:56.343Z,53.19
2019-01-31T09:58:37.217Z,54.41
2019-01-31T10:01:39.684Z,54.01
2019-01-31T10:05:01.001Z,53.31
2019-01-31T10:08:04.619Z,53.40
2019-01-31T10:11:09.635Z,52.66
2019-01-31T10:14:16.577Z,52.71
2019-01-31T10:17:27.243Z,52.94
2019-01-31T10:20:28.233Z,52.94
2019-01-31T10:23:25.663Z,52.25
2019-01-31T10:26:20.973Z,53.26
2019-01-31T10:29:11.932Z,51.68
2019-01-31T10:32:15.419Z,51.75
2019-01-31T10:35:29.254Z,52.64
2019-01-31T10:38:37.581Z,51.90
2019-01-31T10:41:37.071Z,49.78
2019-01-31T10:44:45.489Z,48.96
2019-01-31T10:47:34.803Z,49.93
2019-01-31T10:50:37.585Z,49.33
2019-01-31T10:53:58.309Z,49.23
2019-01-31T10:57:01.443Z,50.24
2019-01-31T11:00:21.393Z,49.46
2019-01-31T11:03:27.699Z,49.73
2019-01-31T11:06:24.552Z,49.04
2019-01-31T11:09:27.226Z,49.99
2019-01-31T11:13:00.806Z,49.75
2019-01-31T11:15:53.585Z,49.23
2019-01-31T11:18:46.028Z,48.46
2019-01-31T11:21:39.397Z,48.99
2019-01-31T11:24:27.413Z,48.04
2019-01-31T11:27:24.176Z,47.39
2019-01-31T11:30:32.391Z,48.23
2019-01-31T11:33:27.703Z,49.25
2019-01-31T11:36:49.246Z,48.26
2019-01-31T11:40:16.031Z,49.56
2019-01-31T11:43:11.876Z,50.45
2019-01-31T11:46:15.307Z,49.25
2019-01-31T11:48:52.950Z,49.61
2019-01-31T11:52:13.379Z,48.50
2019-01-31T11:55:17.426Z,47.90
2019-01-31T11:58:12.534Z,47.89
2019-01-31T12:00:42.834Z,46.79
2019-01-31T12:03:13.650Z,48.38
2019-01-31T12:05:45.210Z,48.30
2019-01-31T12:08:16.254Z,47.96
2019-01-31T12:10:46.659Z,48.12
2019-01-31T12:13:23.562Z,47.57
2019-01-31T12:15:50.944Z,47.19
2019-01-31T12:18:21.961Z,47.09
2019-01-31T12:20:52.279Z,45.67
2019-01-31T12:23:23.587Z,47.01
2019-01-31T12:26:02.755Z,47.38
2019-01-31T12:28:37.731Z,46.74
2019-01-31T12:31:10.342Z,47.38
2019-01-31T12:33:42.126Z,47.81
2019-01-31T12:36:12.117Z,47.15
2019-01-31T12:38:42.149Z,46.42
2019-01-31T12:41:12.437Z,45.95
2019-01-31T12:43:43.475Z,45.77
2019-01-31T12:46:14.206Z,45.49
2019-01-31T12:48:43.868Z,45.86
2019-01-31T12:51:14.863Z,46.88
2019-01-31T12:53:45.054Z,46.71
2019-01-31T12:56:14.847Z,45.79
2019-01-31T12:58:44.344Z,46.54
2019-01-31T13:01:14.378Z,45.36
2019-01-31T13:03:44.265Z,45.51
2019-01-31T13:06:14.171Z,45.89
2019-01-31T13:08:44.814Z,45.72
2019-01-31T13:11:15.167Z,45.64
2019-01-31T13:13:46.235Z,45.36
2019-01-31T13:16:16.390Z,45.13
2019-01-31T13:18:45.959Z,45.03
2019-01-31T13:21:15.556Z,44.93
2019-01-31T13:23:45.505Z,45.27
2019-01-31T13:26:17.216Z,46.49
2019-01-31T13:28:46.715Z,45.64
2019-01-31T13:31:16.477Z,46.25
2019-01-31T13:33:46.856Z,46.14
2019-01-31T13:36:17.316Z,46.62
2019-01-31T13:38:47.967Z,46.44
2019-01-31T13:41:20.604Z,46.65
2019-01-31T13:43:57.596Z,46.49
2019-01-31T13:46:24.015Z,46.34
2019-01-31T13:48:54.656Z,46.10
2019-01-31T13:51:24.230Z,45.55
2019-01-31T13:53:53.970Z,46.11
2019-01-31T13:56:24.001Z,46.82
2019-01-31T13:58:53.514Z,45.87
2019-01-31T14:01:23.208Z,46.46
2019-01-31T14:03:53.580Z,46.36
2019-01-31T14:06:23.990Z,45.35
2019-01-31T14:08:55.040Z,45.37
2019-01-31T14:11:25.495Z,46.26
2019-01-31T14:13:55.945Z,46.35
2019-01-31T14:16:25.720Z,46.68
2019-01-31T14:18:55.675Z,46.61
2019-01-31T14:21:30.293Z,47.59
2019-01-31T14:24:00.367Z,47.06
2019-01-31T14:26:33.760Z,47.21
2019-01-31T14:29:03.557Z,46.44
2019-01-31T14:31:33.802Z,46.95
2019-01-31T14:34:04.689Z,46.83
2019-01-31T14:36:34.201Z,46.38
2019-01-31T14:39:06.844Z,45.96
2019-01-31T14:41:37.315Z,45.78
2019-01-31T14:44:06.848Z,46.75
2019-01-31T14:46:37.068Z,46.40
2019-01-31T14:49:06.749Z,46.02
2019-01-31T14:51:37.310Z,46.18
2019-01-31T14:54:06.942Z,47.37
2019-01-31T14:56:37.024Z,47.55
2019-01-31T14:59:06.916Z,48.09
2019-01-31T15:01:37.636Z,48.09
2019-01-31T15:04:09.635Z,48.78
2019-01-31T15:06:40.999Z,48.44
2019-01-31T15:09:10.528Z,48.99
2019-01-31T15:11:40.314Z,48.86
2019-01-31T15:14:10.128Z,49.49
2019-01-31T15:16:39.862Z,49.70
2019-01-31T15:19:10.445Z,49.33
2019-01-31T15:21:40.292Z,49.74
2019-01-31T15:24:12.269Z,49.99
2019-01-31T15:26:41.889Z,50.25
2019-01-31T15:29:13.302Z,50.56
2019-01-31T15:31:43.926Z,50.79
2019-01-31T15:34:14.499Z,51.34
2019-01-31T15:36:45.102Z,50.53
2019-01-31T15:39:15.223Z,51.46
2019-01-31T15:41:45.188Z,51.35
2019-01-31T15:44:15.839Z,50.13
2019-01-31T15:46:45.336Z,50.75
2019-01-31T15:49:14.920Z,50.97
2019-01-31T15:51:44.899Z,51.19
2019-01-31T15:54:16.561Z,50.71
2019-01-31T15:56:48.475Z,51.31
2019-01-31T15:59:19.400Z,51.15
2019-01-31T16:01:49.526Z,50.75
2019-01-31T16:04:19.934Z,50.58
2019-01-31T16:06:49.955Z,50.89
2019-01-31T16:09:24.088Z,50.22
2019-01-31T16:11:53.634Z,50.74
2019-01-31T16:14:24.001Z,50.57
2019-01-31T16:16:55.024Z,51.09
2019-01-31T16:19:24.750Z,51.59
2019-01-31T16:21:54.294Z,51.72
2019-01-31T16:24:26.178Z,51.79
2019-01-31T16:26:55.739Z,51.45
2019-01-31T16:29:25.319Z,51.56
2019-01-31T16:31:54.859Z,52.21
2019-01-31T16:34:24.432Z,51.51
2019-01-31T16:36:54.318Z,51.78
2019-01-31T16:39:24.238Z,52.69
2019-01-31T16:41:53.791Z,51.98
2019-01-31T16:44:23.285Z,52.94
2019-01-31T16:46:53.084Z,51.86
2019-01-31T16:49:22.585Z,52.76
2019-01-31T16:51:52.124Z,53.25
2019-01-31T16:54:21.946Z,53.24
2019-01-31T16:56:51.550Z,52.81
2019-01-31T16:59:21.190Z,52.61
2019-01-31T17:01:50.801Z,52.71
2019-01-31T17:04:20.349Z,53.01
2019-01-31T17:06:49.961Z,53.11
2019-01-31T17:09:19.498Z,52.80
2019-01-31T17:11:49.291Z,52.61
2019-01-31T17:14:19.758Z,53.29
2019-01-31T17:16:49.285Z,54.17
2019-01-31T17:19:18.821Z,54.66
2019-01-31T17:21:48.543Z,53.10
2019-01-31T17:24:18.383Z,52.91
2019-01-31T17:26:48.033Z,52.88
2019-01-31T17:29:17.758Z,53.57
2019-01-31T17:31:47.357Z,53.75
2019-01-31T17:34:16.848Z,54.19
2019-01-31T17:36:46.640Z,54.66
2019-01-31T17:39:16.187Z,54.08
2019-01-31T17:41:45.782Z,53.46
2019-01-31T17:44:15.698Z,53.99
2019-01-31T17:46:45.501Z,55.01
2019-01-31T17:49:15.032Z,53.99
2019-01-31T17:51:44.620Z,53.94
2019-01-31T17:54:14.190Z,54.18
2019-01-31T17:56:43.666Z,54.02
2019-01-31T17:59:13.337Z,54.42
2019-01-31T18:01:43.258Z,55.37
2019-01-31T18:04:12.783Z,54.38
2019-01-31T18:06:42.370Z,54.85
2019-01-31T18:09:12.699Z,54.85
2019-01-31T18:11:42.202Z,55.05
2019-01-31T18:14:12.292Z,55.38
2019-01-31T18:16:42.079Z,55.28
2019-01-31T18:19:11.591Z,55.28
2019-01-31T18:21:41.068Z,56.33
2019-01-31T18:24:10.542Z,56.42
2019-01-31T18:26:40.087Z,56.65
2019-01-31T18:29:09.586Z,56.90
2019-01-31T18:31:39.270Z,57.00
2019-01-31T18:34:08.751Z,57.03
2019-01-31T18:36:38.225Z,56.83
2019-01-31T18:39:09.815Z,56.91
2019-01-31T18:41:39.515Z,56.82
2019-01-31T18:44:11.067Z,56.82
2019-01-31T18:46:40.887Z,57.02
2019-01-31T18:49:10.508Z,57.21
2019-01-31T18:51:40.746Z,57.26
2019-01-31T18:54:12.588Z,57.35
2019-01-31T18:56:42.331Z,57.48
2019-01-31T18:59:12.000Z,57.44
2019-01-31T19:01:41.926Z,57.86
2019-01-31T19:04:12.237Z,57.64
2019-01-31T19:06:42.242Z,58.12
2019-01-31T19:09:12.231Z,57.78
2019-01-31T19:11:41.916Z,57.81
2019-01-31T19:14:14.348Z,57.95
2019-01-31T19:16:43.856Z,57.84
2019-01-31T19:19:13.781Z,57.60
2019-01-31T19:21:43.325Z,57.48
2019-01-31T19:24:12.830Z,57.48
2019-01-31T19:26:42.378Z,57.42
2019-01-31T19:29:11.960Z,57.16
2019-01-31T19:31:41.542Z,56.96
2019-01-31T19:34:11.261Z,56.98
2019-01-31T19:36:40.833Z,57.16
2019-01-31T19:39:16.346Z,56.80
2019-01-31T19:41:46.160Z,56.92
2019-01-31T19:44:15.694Z,57.09
2019-01-31T19:46:45.774Z,56.66
2019-01-31T19:49:15.427Z,56.54
2019-01-31T19:51:45.456Z,57.16
2019-01-31T19:54:15.745Z,56.43
2019-01-31T19:56:47.041Z,56.84
2019-01-31T19:59:16.810Z,56.76
2019-01-31T20:01:46.440Z,56.55
2019-01-31T20:04:16.231Z,56.29
2019-01-31T20:06:46.378Z,56.61
2019-01-31T20:09:20.278Z,56.76
2019-01-31T20:11:49.822Z,56.49
2019-01-31T20:14:19.783Z,56.94
2019-01-31T20:16:49.452Z,56.87
2019-01-31T20:19:19.260Z,57.33
2019-01-31T20:21:48.834Z,57.28
2019-01-31T20:24:18.716Z,57.58
2019-01-31T20:26:48.636Z,57.16
2019-01-31T20:29:18.588Z,57.52
2019-01-31T20:31:48.261Z,57.62
2019-01-31T20:34:18.291Z,57.78
2019-01-31T20:36:47.907Z,57.85
2019-01-31T20:39:18.376Z,58.00
2019-01-31T20:41:54.238Z,57.88
2019-01-31T20:44:20.553Z,57.59
2019-01-31T20:46:50.206Z,57.31
2019-01-31T20:49:20.030Z,57.31
2019-01-31T20:51:49.946Z,57.93
2019-01-31T20:54:19.627Z,57.93
2019-01-31T20:56:51.256Z,57.65
2019-01-31T20:59:21.537Z,57.69
2019-01-31T21:01:51.162Z,58.19
2019-01-31T21:04:20.890Z,58.04
2019-01-31T21:06:50.455Z,58.27
2019-01-31T21:09:20.357Z,58.23
2019-01-31T21:11:50.090Z,58.66
2019-01-31T21:14:19.794Z,58.78
2019-01-31T21:16:51.967Z,58.54
2019-01-31T21:19:20.724Z,58.98
2019-01-31T21:21:50.237Z,58.76
2019-01-31T21:24:21.174Z,58.74
2019-01-31T21:26:50.784Z,58.87
2019-01-31T21:29:20.319Z,59.13
2019-01-31T21:31:49.889Z,59.05
2019-01-31T21:34:19.566Z,59.17
2019-01-31T21:36:49.232Z,59.22
2019-01-31T21:39:19.010Z,59.01
2019-01-31T21:41:48.598Z,59.04
2019-01-31T21:44:18.635Z,58.88
2019-01-31T21:46:48.187Z,58.71
2019-01-31T21:49:18.539Z,58.30
2019-01-31T21:51:48.612Z,58.60
2019-01-31T21:54:18.197Z,58.37
2019-01-31T21:56:48.027Z,58.52
2019-01-31T21:59:18.582Z,58.37
2019-01-31T22:01:48.140Z,58.48
2019-01-31T22:04:18.070Z,58.43
2019-01-31T22:06:48.335Z,58.27
2019-01-31T22:09:17.863Z,58.33
2019-01-31T22:11:47.726Z,57.96
2019-01-31T22:14:17.346Z,57.90
2019-01-31T22:16:46.916Z,57.80
2019-01-31T22:19:16.605Z,57.81
2019-01-31T22:21:46.770Z,57.55
2019-01-31T22:24:16.579Z,57.46
2019-01-31T22:26:46.203Z,57.44
2019-01-31T22:29:15.807Z,57.42
2019-01-31T22:31:45.883Z,57.78
2019-01-31T22:34:16.046Z,57.64
2019-01-31T22:36:45.753Z,57.58
2019-01-31T22:39:16.192Z,57.34
2019-01-31T22:41:45.719Z,57.45
2019-01-31T22:44:15.678Z,57.80
2019-01-31T22:46:46.128Z,57.60
2019-01-31T22:49:16.705Z,57.69
2019-01-31T22:51:46.783Z,57.42
2019-01-31T22:54:17.166Z,57.28
2019-01-31T22:56:46.744Z,57.53
2019-01-31T22:59:16.656Z,57.67
2019-01-31T23:01:59.247Z,57.64
2019-01-31T23:04:29.097Z,58.08
2019-01-31T23:06:59.830Z,57.93
2019-01-31T23:09:29.395Z,58.12
2019-01-31T23:11:58.993Z,58.07
2019-01-31T23:14:28.793Z,58.13
2019-01-31T23:16:58.565Z,58.46
2019-01-31T23:19:30.527Z,58.50
2019-01-31T23:22:00.020Z,58.20
2019-01-31T23:24:30.779Z,58.09
2019-01-31T23:27:00.270Z,57.75
2019-01-31T23:29:30.111Z,57.67
2019-01-31T23:31:59.977Z,57.57
2019-01-31T23:34:29.916Z,58.04
2019-01-31T23:36:59.398Z,57.82
2019-01-31T23:39:29.263Z,58.26
2019-01-31T23:41:58.792Z,58.21
2019-01-31T23:44:29.009Z,58.92
2019-01-31T23:46:58.772Z,58.08
2019-01-31T23:49:28.819Z,58.09
2019-01-31T23:51:58.311Z,58.34
2019-01-31T23:54:28.589Z,58.85
2019-01-31T23:56:58.326Z,59.72
2019-01-31T23:59:27.833Z,59.25
